Airfield :
LOGIN :

Register | Disclaimer

   EN    FR    IT 

 










Legend :    VFR   Marginal VFR   IFR   Intensive IFR   Very Intensive IFR
Visi :
Ceiling :
>= 8 km
>= 3000ft
5 to 8 km
1000 to 3000 ft
1500m to 5 km
500 to 1000 ft
800 to 1500m
200 to 500 ft
< 800m
< 200 ft
Symbols :   Thunderstorms  Fog  Heavy snow  Heavy precipitations  Wind > 20 kt
SIGMETs :     Misc.  Thunderstorms  Icing  Turbulence  Mountain Waves  Volcanic Ashes






- Airport Elevation : 95 ft
- IATA code : AHU


GMTA - Al Hoceima

CURRENT METAR :
  • 040100Z 17005KT 150V210 CAVOK 13/09 Q1009 NOSIG

EXPIRED METARs :
  • 040000Z 19005KT CAVOK 13/09 Q1010 NOSIG
  • 032300Z 20003KT 160V230 CAVOK 12/09 Q1010 NOSIG

TAF TAF GMTA
Valid from the 04 at 00:00 until the 05 at 06:00 UTC


032300Z 0400/0506 VRB02KT CAVOK
PROB30 0402/0407 2000 BR
PROB30
TEMPO 0410/0424 28017G33KT
BECMG 0411/0414 30012KT
PROB40
TEMPO 0412/0424 4000 -RA



MET'MAP, your aeronautical weather chart ! - Copyright ORBIFLY December 2007 - Disclaimer

ORBIFLY MET'MAP TEAM :

Programming & Development : Alexandra Zaïnal
Concept & original design : Baudouin d'Aumeries
Assistance for programming : Marc-Olivier Méhu
Technical & hardware support : Manuel Goepfert

Contact : metmap@orbifly.com




SOURCES & CREDITS :

   NOAA